WetterOnline ( https://www.wetteronline.de )

Wetter aktuell Allgäuer Alpen (in 800m)

Aktuelles Wetter: Oberstdorf (812m)

6-stündlich | Neueste Meldungen
Ortszeit Temperatur Wetter
Mo, 06.07. 8:00 17.9° C wolkenlos
Mo, 06.07. 2:00 15.4° C bedeckt
So, 05.07. 20:00 23.8° C wolkenlos
So, 05.07. 14:00 25.9° C wolkenlos
So, 05.07. 8:00 15.0° C wolkenlos
So, 05.07. 2:00 12.1° C leicht bewölkt
Sa, 04.07. 20:00 20.7° C wolkenlos
Sa, 04.07. 14:00 21.4° C leicht bewölkt
Ortszeit Temperatur Wetter
Mo, 06.07. 10:30 20.1° C wolkig
Mo, 06.07. 10:20 20.1° C wolkig
Mo, 06.07. 10:10 19.9° C bewölkt
Mo, 06.07. 10:00 20.3° C wolkig
Mo, 06.07. 9:50 20.3° C wolkig
Mo, 06.07. 9:40 19.7° C leicht bewölkt
Mo, 06.07. 9:30 19.5° C leicht bewölkt
Mo, 06.07. 9:00 19.8° C wolkig
Ortszeit Relative Feuchte Sichtweite
Mo, 06.07. 8:00 82% >70 km
Mo, 06.07. 2:00 96% 55 km
So, 05.07. 20:00 58% >70 km
So, 05.07. 14:00 43% 55 km
So, 05.07. 8:00 79% 55 km
So, 05.07. 2:00 90% 65 km
Sa, 04.07. 20:00 58% >70 km
Sa, 04.07. 14:00 53% >70 km
Ortszeit Relative Feuchte Sichtweite
Mo, 06.07. 10:30 65% >70 km
Mo, 06.07. 10:20 65% -
Mo, 06.07. 10:10 65% -
Mo, 06.07. 10:00 70% 50 km
Mo, 06.07. 9:50 70% -
Mo, 06.07. 9:40 70% -
Mo, 06.07. 9:30 67% >70 km
Mo, 06.07. 9:00 66% 50 km
Ortszeit Niederschlagsmenge Niederschlagsart
Mo, 06.07. 8:00 0.0 l/m2 in 12 Std. -
Mo, 06.07. 2:00 0.0 l/m2 in 6 Std. -
So, 05.07. 20:00 0.1 l/m2 in 12 Std. -
So, 05.07. 14:00 0.1 l/m2 in 6 Std. Niederschlag
So, 05.07. 8:00 0.0 l/m2 in 12 Std. -
So, 05.07. 2:00 0.0 l/m2 in 6 Std. -
Sa, 04.07. 20:00 0.0 l/m2 in 12 Std. -
Sa, 04.07. 14:00 0.0 l/m2 in 6 Std. -
Ortszeit Niederschlagsmenge Niederschlagsart
Mo, 06.07. 10:30 0.0 l/m2 in 1 Std. -
Mo, 06.07. 10:20 keine Meldung -
Mo, 06.07. 10:10 keine Meldung -
Mo, 06.07. 10:00 0.0 l/m2 in 1 Std. -
Mo, 06.07. 9:50 keine Meldung -
Mo, 06.07. 9:40 keine Meldung -
Mo, 06.07. 9:30 0.0 l/m2 in 1 Std. -
Mo, 06.07. 9:00 0.0 l/m2 in 1 Std. -
Ortszeit Stärke Spitze Richtung
km/h Bft. km/h Grad Sektor
Mo, 06.07. 8:00 7 2 18 150° SO
Mo, 06.07. 2:00 4 1 29 170° S
So, 05.07. 20:00 20 4 31 300° NW
So, 05.07. 14:00 4 1 22 340° N
So, 05.07. 8:00 11 2 22 80° O
So, 05.07. 2:00 11 2 19 170° S
Sa, 04.07. 20:00 11 2 25 300° NW
Sa, 04.07. 14:00 6 1 17 320° NW
Ortszeit Stärke Spitze Richtung
km/h Bft. km/h Grad Sektor
Mo, 06.07. 10:30 11 2 22 300° NW
Mo, 06.07. 10:20 11 2 - 300° NW
Mo, 06.07. 10:10 11 2 - 290° W
Mo, 06.07. 10:00 7 2 26 310° NW
Mo, 06.07. 9:50 7 2 - 310° NW
Mo, 06.07. 9:40 9 2 - 320° NW
Mo, 06.07. 9:30 19 3 26 300° NW
Mo, 06.07. 9:00 7 2 25 330° NW
Ortszeit Untergrenze Bedeckung Gattung
total tief tief mittel hoch
Mo, 06.07. 8:00 - 0/8 0/8 - - -
Mo, 06.07. 2:00 1200 m 8/8 8/8 - - -
So, 05.07. 20:00 - 0/8 0/8 - - -
So, 05.07. 14:00 - 0/8 0/8 - - -
So, 05.07. 8:00 - 0/8 0/8 - - -
So, 05.07. 2:00 1500 m 2/8 2/8 - - -
Sa, 04.07. 20:00 - 0/8 0/8 - - -
Sa, 04.07. 14:00 7200 m 6/8 0/8 - - -
Ortszeit Bedeckungsgrad in Achtel und Wolkenuntergrenze
Mo, 06.07. 10:30 1(990m) 4(1500m) 5(2100m)
Mo, 06.07. 10:20 1(990m) 4(1500m) 5(2100m)
Mo, 06.07. 10:10 2(1020m) 6(1500m) 7(1800m)
Mo, 06.07. 10:00 3(1080m) 5(1800m)
Mo, 06.07. 9:50 3(1080m) 5(1800m)
Mo, 06.07. 9:40 2(1800m)
Mo, 06.07. 9:30 4(1800m)
Mo, 06.07. 9:00 4(1800m) 5(2100m)
Ortszeit Stationsdruck (hPa) Tendenz (hPa in 3 Std.)
Mo, 06.07. 8:00 924 - 0,8
Mo, 06.07. 2:00 926 + 0,2
So, 05.07. 20:00 925 - 0,1
So, 05.07. 14:00 927 - 1,1
So, 05.07. 8:00 928 - 0,9
So, 05.07. 2:00 929 + 0,5
Sa, 04.07. 20:00 927 - 0,1
Sa, 04.07. 14:00 928 - 0,7
Ortszeit Stationsdruck (hPa) Tendenz (hPa in 3 Std.)
Mo, 06.07. 10:30 924 - 0,3
Mo, 06.07. 10:20 924 keine Meldung
Mo, 06.07. 10:10 924 keine Meldung
Mo, 06.07. 10:00 924 - 0,4
Mo, 06.07. 9:50 924 keine Meldung
Mo, 06.07. 9:40 924 keine Meldung
Mo, 06.07. 9:30 924 - 0,5
Mo, 06.07. 9:00 924 - 0,5
Ortszeit Schneehöhe (cm)
Mo, 06.07. 8:00 -
Mo, 06.07. 2:00 -
So, 05.07. 20:00 -
So, 05.07. 14:00 -
So, 05.07. 8:00 -
So, 05.07. 2:00 -
Sa, 04.07. 20:00 -
Sa, 04.07. 14:00 -
Ortszeit Schneehöhe (cm)
Mo, 06.07. 10:30 -
Mo, 06.07. 10:20 -
Mo, 06.07. 10:10 -
Mo, 06.07. 10:00 -
Mo, 06.07. 9:50 -
Mo, 06.07. 9:40 -
Mo, 06.07. 9:30 -
Mo, 06.07. 9:00 -
Link zu dieser Seite / Seite empfehlen

Das Wetter in ...